Time;durP1;ratioP1;P1;durP2;ratioP2;P2;SDS_P1;SDS_P2;PMS_P1;PMS_P2;Temp;Humidity;BMP_temperature;BMP_pressure;BME280_temperature;BME280_humidity;BME280_pressure;Samples;Min_cycle;Max_cycle;Signal;HPM_P1;HPM_P2
2022/11/16 10:03:48;;;;;;;5.13;1.52;;;13.30;99.90;;;;;;5112439;27;20109;-68
2022/11/16 10:06:50;;;;;;;4.97;2.00;;;13.30;99.90;;;;;;5112320;28;20054;-68
2022/11/16 10:09:16;;;;;;;3.47;1.45;;;13.60;99.90;;;;;;5066952;28;20448;-67
2022/11/16 10:12:16;;;;;;;7.72;2.92;;;13.70;99.90;;;;;;5039319;28;20021;-68
2022/11/16 10:14:47;;;;;;;5.15;1.77;;;13.90;99.90;;;;;;5048797;28;20029;-68
2022/11/16 10:17:31;;;;;;;6.53;1.60;;;14.30;99.90;;;;;;5048114;28;20489;-67
2022/11/16 10:20:22;;;;;;;3.83;1.42;;;14.70;99.90;;;;;;5038940;28;20117;-67
2022/11/16 10:23:04;;;;;;;6.85;1.50;;;14.80;99.90;;;;;;5027886;28;20041;-67
2022/11/16 10:25:42;;;;;;;4.15;1.52;;;15.00;99.90;;;;;;5028379;28;20113;-67
2022/11/16 10:28:17;;;;;;;4.10;1.20;;;15.10;99.90;;;;;;5028175;28;20037;-67
2022/11/16 10:30:53;;;;;;;4.43;1.55;;;15.10;99.90;;;;;;5037089;28;20025;-69
2022/11/16 10:33:20;;;;;;;3.95;1.15;;;15.20;99.90;;;;;;5048077;28;20032;-67
2022/11/16 10:35:52;;;;;;;3.70;1.00;;;15.20;99.90;;;;;;5048073;28;20033;-67
2022/11/16 10:38:24;;;;;;;5.10;1.10;;;15.00;99.90;;;;;;5028271;28;20057;-67
2022/11/16 10:41:04;;;;;;;4.65;0.88;;;15.00;99.90;;;;;;5033475;28;20025;-67
2022/11/16 10:43:31;;;;;;;6.00;1.77;;;14.90;99.90;;;;;;5028381;28;20093;-67
2022/11/16 10:46:15;;;;;;;3.45;1.10;;;14.80;99.90;;;;;;5087339;28;20036;-67
2022/11/16 10:48:56;;;;;;;6.05;2.63;;;14.50;99.90;;;;;;5085292;28;20025;-68
2022/11/16 10:51:22;;;;;;;6.38;2.58;;;14.40;99.90;;;;;;5072055;28;20016;-67
2022/11/16 10:53:48;;;;;;;6.03;1.90;;;14.40;99.90;;;;;;5090116;28;20488;-67
2022/11/16 10:56:26;;;;;;;5.45;1.23;;;14.40;99.90;;;;;;5090150;28;20020;-67
2022/11/16 10:59:05;;;;;;;4.13;1.45;;;14.30;99.90;;;;;;5089912;28;20052;-69
2022/11/16 11:01:57;;;;;;;4.50;1.88;;;14.30;99.90;;;;;;5075648;28;20445;-67
2022/11/16 11:04:30;;;;;;;2.50;1.00;;;14.40;99.90;;;;;;5074979;28;20044;-67
2022/11/16 11:07:28;;;;;;;6.45;1.40;;;14.40;99.90;;;;;;5082580;28;20024;-68
2022/11/16 11:09:54;;;;;;;3.47;1.30;;;14.30;99.90;;;;;;5089264;28;20441;-67
2022/11/16 11:12:36;;;;;;;7.25;1.50;;;14.20;99.90;;;;;;5088315;28;20028;-67
2022/11/16 11:15:11;;;;;;;8.18;2.20;;;14.10;99.90;;;;;;5074675;28;20020;-68
2022/11/16 11:17:47;;;;;;;5.30;2.00;;;14.00;99.90;;;;;;5066877;22;20102;-68
2022/11/16 11:20:15;;;;;;;6.10;1.17;;;14.00;99.90;;;;;;5050540;28;20017;-69
2022/11/16 11:22:59;;;;;;;8.13;1.80;;;13.90;99.90;;;;;;5054161;28;20075;-68
2022/11/16 11:25:27;;;;;;;4.00;0.85;;;13.80;99.90;;;;;;5054297;28;20025;-68
2022/11/16 11:28:34;;;;;;;4.28;1.08;;;13.70;99.90;;;;;;5055650;28;20113;-69
2022/11/16 11:31:08;;;;;;;3.80;1.00;;;13.80;99.90;;;;;;5054677;28;20056;-68
2022/11/16 11:33:36;;;;;;;3.35;1.25;;;13.90;99.90;;;;;;5056153;28;20071;-67
2022/11/16 11:36:25;;;;;;;3.47;1.20;;;14.00;99.90;;;;;;5055727;28;20082;-68
2022/11/16 11:39:11;;;;;;;16.38;7.15;;;14.20;99.90;;;;;;5056099;28;20071;-69
2022/11/16 11:41:40;;;;;;;3.08;1.42;;;14.30;99.90;;;;;;5050922;28;20481;-69
2022/11/16 11:44:16;;;;;;;3.25;1.40;;;14.50;99.90;;;;;;5054526;28;20021;-69
2022/11/16 11:46:56;;;;;;;8.63;2.00;;;14.70;99.90;;;;;;5054944;28;20496;-69
2022/11/16 11:49:48;;;;;;;2.95;1.08;;;14.90;99.90;;;;;;5056025;28;20450;-68
2022/11/16 11:52:21;;;;;;;3.35;0.98;;;15.00;99.90;;;;;;5053686;28;20029;-68
2022/11/16 11:54:51;;;;;;;2.40;1.33;;;15.00;99.90;;;;;;5054578;28;20094;-68
2022/11/16 11:57:21;;;;;;;5.82;1.30;;;15.00;99.90;;;;;;5054759;28;20032;-67
2022/11/16 11:59:49;;;;;;;2.78;1.00;;;15.20;99.90;;;;;;5055243;28;20024;-68
2022/11/16 12:02:26;;;;;;;5.20;1.10;;;15.30;99.90;;;;;;5054760;28;20029;-68
2022/11/16 12:05:33;;;;;;;2.92;1.00;;;15.20;99.90;;;;;;5038453;28;20022;-68
2022/11/16 12:08:11;;;;;;;4.70;1.40;;;15.00;99.90;;;;;;5041782;28;20420;-68
2022/11/16 12:10:49;;;;;;;2.85;1.27;;;14.80;99.90;;;;;;5055585;28;20028;-69
2022/11/16 12:13:37;;;;;;;9.05;2.65;;;14.70;99.90;;;;;;5038457;28;20039;-69
2022/11/16 12:16:09;;;;;;;;;;;14.70;99.90;;;;;;5054988;28;20021;-68
2022/11/16 12:18:46;;;;;;;5.22;1.63;;;14.70;99.90;;;;;;5055082;28;19931;-68
2022/11/16 12:21:32;;;;;;;1.65;0.90;;;14.70;99.90;;;;;;5053758;28;20029;-69
2022/11/16 12:24:12;;;;;;;6.95;1.10;;;14.80;99.90;;;;;;5049838;28;20033;-68
2022/11/16 12:26:59;;;;;;;5.80;1.30;;;14.90;99.90;;;;;;5053906;28;20033;-69
2022/11/16 12:29:46;;;;;;;6.13;2.07;;;14.90;99.90;;;;;;5053251;28;20171;-69
2022/11/16 12:32:18;;;;;;;3.47;0.95;;;14.90;99.90;;;;;;5053192;28;20033;-69
2022/11/16 12:35:16;;;;;;;3.38;1.05;;;14.90;99.90;;;;;;5054427;28;20025;-68
2022/11/16 12:37:51;;;;;;;4.35;1.05;;;14.80;99.90;;;;;;5033195;28;20030;-67
2022/11/16 12:40:49;;;;;;;4.70;1.05;;;14.90;99.90;;;;;;5037448;28;20033;-68
2022/11/16 12:43:47;;;;;;;7.45;1.42;;;14.90;99.90;;;;;;5053133;28;20031;-67
2022/11/16 12:46:50;;;;;;;5.88;1.30;;;14.80;99.90;;;;;;5052995;28;20123;-68
2022/11/16 12:49:34;;;;;;;3.67;0.77;;;14.70;99.90;;;;;;5052309;28;20057;-69
2022/11/16 12:52:38;;;;;;;3.63;1.00;;;14.80;99.90;;;;;;5034256;28;20025;-65
2022/11/16 12:55:19;;;;;;;3.53;1.10;;;14.80;99.90;;;;;;5053054;28;20029;-67
2022/11/16 12:58:02;;;;;;;4.38;1.23;;;14.80;99.90;;;;;;5054128;28;20029;-70
2022/11/16 13:00:30;;;;;;;3.60;0.90;;;14.80;99.90;;;;;;5032815;28;20022;-69
2022/11/16 13:03:19;;;;;;;6.07;1.23;;;14.90;99.90;;;;;;5033679;28;20036;-67
2022/11/16 13:05:55;;;;;;;5.70;1.73;;;14.90;99.90;;;;;;5053214;28;20113;-68
2022/11/16 13:08:49;;;;;;;8.65;1.75;;;14.90;99.90;;;;;;5043884;28;20022;-65
2022/11/16 13:11:19;;;;;;;5.53;0.90;;;14.90;99.90;;;;;;5039646;28;20021;-68
2022/11/16 13:13:48;;;;;;;7.18;1.10;;;14.80;99.90;;;;;;5033107;28;20047;-68
2022/11/16 13:16:16;;;;;;;6.65;1.60;;;14.90;99.90;;;;;;5049725;28;20036;-67
2022/11/16 13:18:43;;;;;;;3.80;1.00;;;14.80;99.90;;;;;;5051383;28;20032;-67
2022/11/16 13:21:30;;;;;;;5.82;1.73;;;14.90;99.90;;;;;;5050002;28;20128;-69
2022/11/16 13:24:07;;;;;;;3.10;0.82;;;14.80;99.90;;;;;;5050103;28;20542;-69
2022/11/16 13:26:42;;;;;;;3.03;0.93;;;14.80;99.90;;;;;;5053486;28;20029;-68
2022/11/16 13:29:29;;;;;;;4.35;0.90;;;14.60;99.90;;;;;;5053350;28;20101;-70
2022/11/16 13:32:13;;;;;;;8.70;1.63;;;14.60;99.90;;;;;;5052104;28;20025;-68
2022/11/16 13:34:39;;;;;;;8.55;1.80;;;14.70;99.90;;;;;;5052186;28;20028;-67
2022/11/16 13:37:32;;;;;;;5.07;1.70;;;14.60;99.90;;;;;;5051636;28;20119;-74
2022/11/16 13:39:58;;;;;;;5.45;1.27;;;14.60;99.90;;;;;;5051910;28;20481;-65
2022/11/16 13:42:25;;;;;;;9.87;1.37;;;14.70;99.90;;;;;;5052794;28;20040;-66
2022/11/16 13:44:52;;;;;;;6.78;1.20;;;14.70;99.90;;;;;;5054718;28;20017;-64
2022/11/16 13:47:25;;;;;;;7.80;1.08;;;14.60;99.90;;;;;;5053542;28;20032;-65
2022/11/16 13:49:58;;;;;;;5.68;0.90;;;14.60;99.90;;;;;;5051655;28;20029;-65
2022/11/16 13:52:40;;;;;;;5.82;1.48;;;14.50;99.90;;;;;;5053099;28;20074;-65
2022/11/16 13:55:32;;;;;;;6.20;1.25;;;14.50;99.90;;;;;;5052029;28;20495;-63
2022/11/16 13:58:01;;;;;;;6.45;1.20;;;14.50;99.90;;;;;;5051923;28;20032;-72
2022/11/16 14:00:35;;;;;;;4.32;1.15;;;14.40;99.90;;;;;;5052529;28;20106;-75
2022/11/16 14:03:16;;;;;;;5.20;0.98;;;14.40;99.90;;;;;;5052140;28;20112;-74
2022/11/16 14:05:46;;;;;;;7.15;0.82;;;14.30;99.90;;;;;;5032332;28;20105;-74
2022/11/16 14:08:23;;;;;;;5.28;1.17;;;14.30;99.90;;;;;;5052823;28;20025;-74
2022/11/16 14:10:49;;;;;;;5.13;1.33;;;14.40;99.90;;;;;;5052812;28;20028;-73
2022/11/16 14:13:34;;;;;;;3.97;1.40;;;14.50;99.90;;;;;;5051978;28;20024;-74
2022/11/16 14:16:21;;;;;;;3.40;0.80;;;14.70;99.90;;;;;;5051261;28;20029;-69
2022/11/16 14:18:54;;;;;;;6.70;1.30;;;14.70;99.90;;;;;;5048897;28;20034;-74
2022/11/16 14:22:02;;;;;;;6.50;1.20;;;14.60;99.90;;;;;;5038415;28;20033;-76
2022/11/16 14:24:48;;;;;;;5.93;1.30;;;14.70;99.90;;;;;;5034526;28;20379;-62
2022/11/16 14:27:41;;;;;;;5.22;1.10;;;14.80;99.90;;;;;;5047861;28;20112;-65
2022/11/16 14:30:34;;;;;;;4.95;0.90;;;14.80;99.90;;;;;;5049206;28;20092;-74
2022/11/16 14:32:59;;;;;;;5.53;1.17;;;14.80;99.90;;;;;;5055338;28;20037;-76
2022/11/16 14:35:38;;;;;;;8.15;1.38;;;14.60;99.90;;;;;;5053965;28;20041;-76
2022/11/16 14:38:07;;;;;;;4.80;1.10;;;14.50;99.90;;;;;;5066166;28;20041;-75
2022/11/16 14:40:46;;;;;;;6.45;1.27;;;14.50;99.90;;;;;;5067864;28;20093;-75
2022/11/16 14:43:26;;;;;;;11.32;2.75;;;14.40;99.90;;;;;;5064517;28;20139;-77
2022/11/16 14:45:57;;;;;;;5.22;1.27;;;14.40;99.90;;;;;;5065163;28;20043;-76
2022/11/16 14:48:26;;;;;;;6.35;1.13;;;14.30;99.90;;;;;;5064955;28;20037;-76
2022/11/16 14:51:06;;;;;;;6.40;1.20;;;14.20;99.90;;;;;;5061974;28;20025;-69
2022/11/16 14:53:35;;;;;;;5.00;0.93;;;14.20;99.90;;;;;;5060694;28;20025;-69
2022/11/16 14:56:13;;;;;;;5.45;1.08;;;14.10;99.90;;;;;;5060181;28;20033;-69
2022/11/16 14:58:39;;;;;;;3.53;1.20;;;13.90;99.90;;;;;;5060195;28;20055;-63
2022/11/16 15:01:13;;;;;;;4.85;1.05;;;13.80;99.90;;;;;;5058585;28;20021;-70
2022/11/16 15:04:11;;;;;;;6.13;1.33;;;13.80;99.90;;;;;;5059549;28;20079;-69
2022/11/16 15:06:47;;;;;;;5.15;1.52;;;13.80;99.90;;;;;;5055250;28;20040;-69
2022/11/16 15:09:25;;;;;;;3.03;1.13;;;13.80;99.90;;;;;;5056528;28;20063;-70
2022/11/16 15:15:05;;;;;;;6.10;1.20;;;13.60;99.90;;;;;;5056582;28;20452;-70
2022/11/16 15:17:32;;;;;;;4.80;1.40;;;13.50;99.90;;;;;;5053249;28;20060;-68
2022/11/16 15:20:18;;;;;;;5.05;1.13;;;13.50;99.90;;;;;;5036786;28;20440;-73
2022/11/16 15:22:47;;;;;;;5.30;1.20;;;13.50;99.90;;;;;;5054148;28;20033;-68
2022/11/16 15:25:43;;;;;;;5.25;1.00;;;13.40;99.90;;;;;;5054200;28;20557;-68
2022/11/16 15:28:19;;;;;;;6.00;1.08;;;13.30;99.90;;;;;;5042349;28;20401;-74
2022/11/16 15:31:11;;;;;;;3.35;1.30;;;13.20;99.90;;;;;;5040076;28;20112;-77
2022/11/16 15:33:41;;;;;;;6.25;1.35;;;13.20;99.90;;;;;;5041078;28;20033;-77
2022/11/16 15:36:32;;;;;;;4.63;1.42;;;13.30;99.90;;;;;;5057890;28;20053;-72
2022/11/16 15:38:59;;;;;;;6.70;1.60;;;13.30;99.90;;;;;;5061222;28;20191;-77
2022/11/16 15:41:28;;;;;;;7.78;1.40;;;13.20;99.90;;;;;;5057072;28;20079;-75
2022/11/16 15:43:55;;;;;;;6.70;1.40;;;13.10;99.90;;;;;;5055197;28;20051;-72
2022/11/16 15:46:24;;;;;;;4.93;1.85;;;13.10;99.90;;;;;;5055076;28;20111;-73
2022/11/16 15:48:50;;;;;;;7.35;1.42;;;13.10;99.90;;;;;;5057386;28;20051;-76
2022/11/16 15:51:21;;;;;;;10.32;2.80;;;13.10;99.90;;;;;;5037587;28;20089;-76
2022/11/16 15:53:52;;;;;;;8.43;3.38;;;13.10;99.90;;;;;;5043230;28;20039;-74
2022/11/16 15:56:30;;;;;;;10.50;3.72;;;13.10;99.90;;;;;;5046954;28;20021;-65
2022/11/16 15:59:27;;;;;;;6.75;2.90;;;13.10;99.90;;;;;;5035326;28;20025;-67
2022/11/16 16:01:53;;;;;;;7.22;2.67;;;13.20;99.90;;;;;;5051702;28;20033;-66
2022/11/16 16:04:19;;;;;;;;;;;13.10;99.90;;;;;;5056019;28;20100;-70
2022/11/16 16:06:46;;;;;;;7.20;2.20;;;13.20;99.90;;;;;;5053471;28;19940;-66
2022/11/16 16:09:20;;;;;;;11.80;1.92;;;13.10;99.90;;;;;;5055824;28;20025;-66
2022/11/16 16:11:45;;;;;;;6.68;2.85;;;13.20;99.90;;;;;;5054995;28;20458;-67
2022/11/16 16:14:27;;;;;;;7.03;2.15;;;13.20;99.90;;;;;;5053005;28;20037;-70
2022/11/16 16:16:58;;;;;;;11.88;3.53;;;13.10;99.90;;;;;;5053545;28;20033;-72
2022/11/16 16:19:34;;;;;;;11.90;3.40;;;13.10;99.90;;;;;;5055006;28;20440;-69
2022/11/16 16:22:01;;;;;;;7.18;2.67;;;13.20;99.90;;;;;;5053612;28;20385;-70
2022/11/16 16:24:34;;;;;;;6.10;2.22;;;13.30;99.90;;;;;;5055006;28;20040;-70
2022/11/16 16:27:00;;;;;;;10.02;2.67;;;13.30;99.90;;;;;;5054495;28;20029;-69
2022/11/16 16:29:28;;;;;;;6.67;1.83;;;13.40;99.90;;;;;;5037897;28;20026;-69
2022/11/16 16:31:57;;;;;;;7.03;2.63;;;13.40;99.90;;;;;;5053717;28;20057;-68
2022/11/16 16:34:23;;;;;;;6.32;2.03;;;13.30;99.90;;;;;;5055377;28;20029;-71
2022/11/16 16:36:48;;;;;;;6.87;3.30;;;13.30;99.90;;;;;;5053556;28;20021;-69
2022/11/16 16:39:14;;;;;;;10.87;3.40;;;13.30;99.90;;;;;;5049966;28;20033;-69
2022/11/16 16:41:39;;;;;;;13.47;4.33;;;13.20;99.90;;;;;;5059499;28;20428;-69
2022/11/16 16:44:13;;;;;;;7.70;2.10;;;13.10;99.90;;;;;;5054253;28;20025;-70
2022/11/16 16:46:39;;;;;;;9.25;2.60;;;13.10;99.90;;;;;;5047164;28;20377;-73
2022/11/16 16:49:04;;;;;;;4.80;2.27;;;13.10;99.90;;;;;;5055698;28;20033;-70
2022/11/16 16:51:30;;;;;;;8.70;2.50;;;13.10;99.90;;;;;;5055445;28;20486;-70
2022/11/16 16:53:56;;;;;;;8.75;2.30;;;13.00;99.90;;;;;;5058635;28;20310;-69
2022/11/16 16:56:21;;;;;;;8.77;2.47;;;13.00;99.90;;;;;;5055329;28;20029;-67
2022/11/16 16:58:47;;;;;;;10.00;3.50;;;13.10;99.90;;;;;;5054074;28;20032;-68
2022/11/16 17:01:12;;;;;;;7.40;3.00;;;13.20;99.90;;;;;;5055153;28;20041;-66
2022/11/16 17:03:38;;;;;;;5.05;2.70;;;13.10;99.90;;;;;;5054730;28;20033;-71
2022/11/16 17:06:04;;;;;;;7.25;3.13;;;13.00;99.90;;;;;;5053118;28;20024;-68
2022/11/16 17:08:36;;;;;;;8.77;3.60;;;13.00;99.90;;;;;;5053088;28;20074;-71
2022/11/16 17:11:03;;;;;;;8.70;3.33;;;12.90;99.90;;;;;;5052585;28;20045;-69
2022/11/16 17:13:29;;;;;;;7.80;3.20;;;12.90;99.90;;;;;;5054387;28;20029;-71
2022/11/16 17:15:55;;;;;;;8.15;3.00;;;13.00;99.90;;;;;;5052554;28;20070;-70
2022/11/16 17:18:21;;;;;;;9.88;3.58;;;12.90;99.90;;;;;;5059660;22;20050;-68
2022/11/16 17:20:46;;;;;;;6.78;3.00;;;12.90;99.90;;;;;;5036708;28;20022;-69
2022/11/16 17:23:12;;;;;;;7.23;2.73;;;13.00;99.90;;;;;;5034523;28;20034;-70
2022/11/16 17:25:38;;;;;;;5.93;2.40;;;13.10;99.90;;;;;;5034418;28;20022;-68
2022/11/16 17:28:03;;;;;;;8.50;2.53;;;13.00;99.90;;;;;;5035587;28;20667;-72
2022/11/16 17:30:29;;;;;;;6.27;2.33;;;13.10;99.90;;;;;;5035549;28;20542;-71
2022/11/16 17:32:55;;;;;;;14.03;4.00;;;13.10;99.90;;;;;;5024063;28;20032;-71
2022/11/16 17:35:21;;;;;;;13.75;4.55;;;13.00;99.90;;;;;;5018120;28;20409;-71
2022/11/16 17:37:47;;;;;;;10.98;4.85;;;13.10;99.90;;;;;;5026764;28;20024;-71
2022/11/16 17:40:12;;;;;;;14.43;5.07;;;13.00;99.90;;;;;;5033261;28;20124;-67
2022/11/16 17:42:38;;;;;;;10.40;3.92;;;13.10;99.90;;;;;;5033286;28;20338;-66
2022/11/16 17:45:04;;;;;;;18.63;6.20;;;13.00;99.90;;;;;;5033582;28;20433;-66
2022/11/16 17:47:32;;;;;;;12.05;4.90;;;13.10;99.90;;;;;;5033230;28;20473;-66
2022/11/16 17:49:57;;;;;;;14.35;4.93;;;13.00;99.90;;;;;;5033265;28;20121;-66
2022/11/16 17:52:24;;;;;;;11.63;4.47;;;13.00;99.90;;;;;;5033117;28;20061;-66
2022/11/16 17:54:50;;;;;;;7.97;3.72;;;12.90;99.90;;;;;;5033248;28;20402;-67
2022/11/16 17:57:15;;;;;;;10.40;4.00;;;12.80;99.90;;;;;;5033549;28;20026;-66
2022/11/16 17:59:41;;;;;;;11.17;3.90;;;12.80;99.90;;;;;;5034358;28;20033;-66
2022/11/16 18:02:10;;;;;;;10.27;4.43;;;12.70;99.90;;;;;;5013457;28;20022;-67
2022/11/16 18:04:35;;;;;;;15.00;7.00;;;12.80;99.90;;;;;;5013759;28;20034;-67
2022/11/16 18:07:01;;;;;;;11.77;6.30;;;12.70;99.90;;;;;;5012193;28;20030;-67
2022/11/16 18:09:27;;;;;;;9.85;5.07;;;12.70;99.90;;;;;;5013979;28;20034;-66
2022/11/16 18:11:52;;;;;;;8.75;4.38;;;12.70;99.90;;;;;;5019930;28;20022;-66
2022/11/16 18:14:18;;;;;;;10.83;4.17;;;12.70;99.90;;;;;;5023423;28;20105;-66
2022/11/16 18:16:46;;;;;;;14.27;5.17;;;12.80;99.90;;;;;;5019082;28;20040;-66
2022/11/16 18:19:16;;;;;;;12.07;4.95;;;12.70;99.90;;;;;;5031775;28;20064;-66
2022/11/16 18:21:43;;;;;;;9.13;3.85;;;12.60;99.90;;;;;;5033898;28;20033;-67
2022/11/16 18:24:09;;;;;;;10.48;3.85;;;12.70;99.90;;;;;;5036837;28;20025;-66
2022/11/16 18:26:35;;;;;;;10.73;4.10;;;12.60;99.90;;;;;;5040037;28;20108;-66
2022/11/16 18:29:01;;;;;;;13.25;4.32;;;12.60;99.90;;;;;;5040266;28;20056;-66
2022/11/16 18:31:28;;;;;;;6.38;2.35;;;12.70;99.90;;;;;;5039596;28;20025;-67
2022/11/16 18:33:54;;;;;;;6.15;2.30;;;12.70;99.90;;;;;;5040850;28;20393;-67
2022/11/16 18:36:20;;;;;;;8.87;3.87;;;12.90;99.90;;;;;;5039074;28;20038;-67
2022/11/16 18:38:46;;;;;;;5.75;3.38;;;12.70;99.90;;;;;;5037994;28;20268;-67
2022/11/16 18:41:12;;;;;;;10.57;3.53;;;12.70;99.90;;;;;;5037091;28;20508;-65
2022/11/16 18:43:39;;;;;;;9.17;3.30;;;12.60;99.90;;;;;;5037035;28;20110;-67
2022/11/16 18:46:04;;;;;;;6.60;2.10;;;12.60;99.90;;;;;;5036790;28;20448;-67
2022/11/16 18:48:30;;;;;;;8.32;3.97;;;12.70;99.90;;;;;;5036170;28;20021;-67
2022/11/16 18:50:57;;;;;;;15.27;6.23;;;12.70;99.90;;;;;;5036480;28;20038;-65
2022/11/16 18:53:23;;;;;;;8.45;2.30;;;12.60;99.90;;;;;;5035303;28;20053;-67
2022/11/16 18:55:50;;;;;;;3.63;2.30;;;12.80;99.90;;;;;;5026541;28;20033;-67
2022/11/16 18:58:16;;;;;;;6.72;2.20;;;12.80;99.90;;;;;;5027023;28;20276;-66
2022/11/16 19:00:42;;;;;;;8.18;3.20;;;12.70;99.90;;;;;;5036318;28;20039;-67
2022/11/16 19:03:07;;;;;;;7.83;3.47;;;12.80;99.90;;;;;;5036310;28;20033;-67
2022/11/16 19:05:33;;;;;;;7.03;3.53;;;12.70;99.90;;;;;;5036667;28;20038;-67
2022/11/16 19:07:58;;;;;;;8.17;4.53;;;12.70;99.90;;;;;;5035377;28;20108;-67
2022/11/16 19:10:24;;;;;;;9.67;4.33;;;12.70;99.90;;;;;;5036507;28;20029;-67
2022/11/16 19:12:49;;;;;;;9.17;4.50;;;12.60;99.90;;;;;;5036084;28;20053;-67
2022/11/16 19:15:15;;;;;;;11.47;4.10;;;12.50;99.90;;;;;;5036470;28;20124;-66
2022/11/16 19:17:40;;;;;;;7.43;3.47;;;12.60;99.90;;;;;;5034690;28;20508;-66
2022/11/16 19:20:07;;;;;;;9.67;3.87;;;12.70;99.90;;;;;;5036566;28;20349;-67
2022/11/16 19:22:33;;;;;;;7.80;3.85;;;12.70;99.90;;;;;;5035664;28;20037;-66
2022/11/16 19:25:00;;;;;;;8.27;3.65;;;12.60;99.90;;;;;;5036595;28;20551;-66
2022/11/16 19:27:26;;;;;;;5.78;3.40;;;12.50;99.90;;;;;;5037599;28;20032;-68
2022/11/16 19:29:51;;;;;;;8.47;3.67;;;12.40;99.90;;;;;;5033620;28;20029;-66
2022/11/16 19:32:17;;;;;;;7.47;3.03;;;12.20;99.90;;;;;;5026244;28;20022;-66
2022/11/16 19:34:42;;;;;;;7.63;3.57;;;12.10;99.90;;;;;;5035974;28;20519;-67
2022/11/16 19:37:08;;;;;;;5.20;2.87;;;12.00;99.90;;;;;;5037871;28;20533;-67
2022/11/16 19:39:34;;;;;;;10.17;3.60;;;11.90;99.90;;;;;;5036344;28;20033;-66
2022/11/16 19:41:59;;;;;;;6.37;3.30;;;11.90;99.90;;;;;;5033484;28;20030;-66
2022/11/16 19:44:25;;;;;;;6.20;2.70;;;11.80;99.90;;;;;;5036112;28;20355;-66
2022/11/16 19:46:51;;;;;;;5.20;2.33;;;11.80;99.90;;;;;;5039270;28;20489;-66
2022/11/16 19:49:18;;;;;;;3.70;2.35;;;11.80;99.90;;;;;;5037682;28;20108;-66
2022/11/16 19:51:43;;;;;;;6.97;2.50;;;12.00;99.90;;;;;;5038941;28;20049;-67
2022/11/16 19:54:12;;;;;;;7.37;2.60;;;12.00;99.90;;;;;;5039336;28;20023;-66
2022/11/16 19:56:38;;;;;;;9.15;3.63;;;12.20;99.90;;;;;;5037179;28;20022;-68
2022/11/16 19:59:03;;;;;;;8.60;3.38;;;12.30;99.90;;;;;;5039715;28;20076;-67
2022/11/16 20:01:29;;;;;;;12.40;3.43;;;12.20;99.90;;;;;;5040726;28;20025;-67
2022/11/16 20:03:58;;;;;;;7.97;3.63;;;12.10;99.90;;;;;;5037563;28;20037;-69
2022/11/16 20:06:32;;;;;;;8.80;3.20;;;12.10;99.90;;;;;;5029585;28;20033;-68
2022/11/16 20:09:02;;;;;;;8.10;3.00;;;12.00;99.90;;;;;;5029487;28;20040;-67
2022/11/16 20:11:34;;;;;;;6.28;2.83;;;11.80;99.90;;;;;;5038721;28;20119;-67
2022/11/16 20:14:02;;;;;;;9.10;2.20;;;11.90;99.90;;;;;;5037982;28;20026;-67
2022/11/16 20:16:36;;;;;;;8.93;3.78;;;11.80;99.90;;;;;;5035462;28;20089;-66
2022/11/16 20:19:02;;;;;;;7.85;3.92;;;11.60;99.90;;;;;;5043332;28;20037;-67
2022/11/16 20:21:31;;;;;;;6.80;2.92;;;11.50;99.90;;;;;;5039885;28;20422;-67
2022/11/16 20:23:58;;;;;;;7.55;3.53;;;11.50;99.90;;;;;;5039743;28;20045;-67
2022/11/16 20:26:25;;;;;;;7.53;3.10;;;11.50;99.90;;;;;;5037710;28;20029;-66
2022/11/16 20:28:52;;;;;;;6.70;2.92;;;11.50;99.90;;;;;;5036668;28;20053;-66
2022/11/16 20:31:19;;;;;;;8.88;3.65;;;11.70;99.90;;;;;;5035605;28;20097;-66
2022/11/16 20:33:59;;;;;;;11.18;3.20;;;11.80;99.90;;;;;;5035827;28;20040;-66
2022/11/16 20:36:26;;;;;;;6.53;3.05;;;11.70;99.90;;;;;;5034228;28;20116;-66
2022/11/16 20:38:52;;;;;;;7.03;2.80;;;11.70;99.90;;;;;;5034251;28;20083;-66
2022/11/16 20:41:20;;;;;;;5.57;2.70;;;11.60;99.90;;;;;;5035149;28;20033;-66
2022/11/16 20:43:50;;;;;;;8.70;2.58;;;11.70;99.90;;;;;;5034764;28;20037;-66
2022/11/16 20:46:16;;;;;;;5.00;2.55;;;11.60;99.90;;;;;;5033996;28;20053;-66
2022/11/16 20:48:42;;;;;;;5.78;2.50;;;11.60;99.90;;;;;;5036679;28;20037;-66
2022/11/16 20:51:10;;;;;;;7.38;2.50;;;11.60;99.90;;;;;;5036805;28;20503;-67
2022/11/16 20:53:36;;;;;;;6.45;1.92;;;11.60;99.90;;;;;;5035659;28;20024;-68
2022/11/16 20:56:03;;;;;;;5.72;1.75;;;11.60;99.90;;;;;;5035140;28;20041;-67
2022/11/16 20:58:31;;;;;;;4.72;1.98;;;11.80;99.90;;;;;;5034662;28;20053;-66
2022/11/16 21:01:14;;;;;;;3.53;1.60;;;11.80;99.90;;;;;;5032906;28;20026;-66
2022/11/16 21:03:39;;;;;;;6.38;1.77;;;11.80;99.90;;;;;;5033628;28;20547;-65
2022/11/16 21:06:08;;;;;;;4.17;1.67;;;11.70;99.90;;;;;;5034370;28;20029;-66
2022/11/16 21:08:35;;;;;;;5.30;1.58;;;11.70;99.90;;;;;;5034215;28;20260;-66
2022/11/16 21:11:01;;;;;;;4.95;1.55;;;11.60;99.90;;;;;;5034052;28;20033;-67
2022/11/16 21:16:13;;;;;;;4.43;1.75;;;11.80;99.90;;;;;;5034462;28;20409;-66
2022/11/16 21:18:39;;;;;;;8.25;1.80;;;11.60;99.90;;;;;;5036741;28;20033;-66
2022/11/16 21:21:12;;;;;;;5.55;2.05;;;11.70;99.90;;;;;;5035609;28;20080;-66
2022/11/16 21:23:38;;;;;;;8.32;2.10;;;11.70;99.90;;;;;;5035310;28;20037;-66
2022/11/16 21:26:06;;;;;;;3.38;1.50;;;11.80;99.90;;;;;;5034990;28;20022;-65
2022/11/16 21:28:32;;;;;;;3.05;1.52;;;11.70;99.90;;;;;;5035162;28;20071;-66
2022/11/16 21:31:00;;;;;;;4.85;1.83;;;11.70;99.90;;;;;;5033384;28;20022;-66
2022/11/16 21:33:27;;;;;;;2.15;1.27;;;11.60;99.90;;;;;;5034439;28;20037;-66
2022/11/16 21:35:53;;;;;;;;;;;11.70;99.90;;;;;;5034992;28;20040;-66
2022/11/16 21:38:20;;;;;;;3.25;1.67;;;11.60;99.90;;;;;;5032696;28;19905;-67
2022/11/16 21:40:46;;;;;;;4.13;1.50;;;11.80;99.90;;;;;;5032668;28;20029;-67
2022/11/16 21:43:13;;;;;;;2.72;1.33;;;11.90;99.90;;;;;;5033663;28;20413;-67
2022/11/16 21:45:46;;;;;;;7.65;1.92;;;11.90;99.90;;;;;;5033577;28;20033;-67
2022/11/16 21:48:12;;;;;;;3.15;1.40;;;11.90;99.90;;;;;;5034481;28;20048;-67
2022/11/16 21:50:38;;;;;;;4.55;1.60;;;11.80;99.90;;;;;;5033575;28;20443;-66
2022/11/16 21:53:05;;;;;;;3.70;1.58;;;11.80;99.90;;;;;;5034576;28;20037;-67
2022/11/16 21:55:31;;;;;;;5.43;1.60;;;12.00;99.90;;;;;;5035078;28;20405;-68
2022/11/16 21:57:57;;;;;;;2.42;1.20;;;11.90;99.90;;;;;;5033846;28;20120;-67
